Time;durP1;ratioP1;P1;durP2;ratioP2;P2;SDS_P1;SDS_P2;PMS_P1;PMS_P2;Temp;Humidity;BMP_temperature;BMP_pressure;BME280_temperature;BME280_humidity;BME280_pressure;Samples;Min_cycle;Max_cycle;Signal;HPM_P1;HPM_P2
2023/07/04 00:01:24;;;;;;;8.10;2.80;;;;;;;13.35;83.28;99191.04;109552;1253;70646;-63
2023/07/04 00:04:12;;;;;;;9.60;3.00;;;;;;;13.33;83.10;99189.11;109493;1253;67721;-63
2023/07/04 00:07:00;;;;;;;9.20;2.40;;;;;;;13.27;83.55;99187.14;109197;1253;71109;-62
2023/07/04 00:09:47;;;;;;;8.50;2.50;;;;;;;13.22;83.49;99186.55;109484;1253;57737;-63
2023/07/04 00:12:33;;;;;;;8.40;2.20;;;;;;;13.18;83.42;99185.64;109462;1253;60114;-63
2023/07/04 00:15:19;;;;;;;9.40;2.80;;;;;;;13.13;83.74;99189.86;109525;1253;70611;-62
2023/07/04 00:18:05;;;;;;;9.80;2.70;;;;;;;13.09;83.98;99185.27;109514;1253;67748;-64
2023/07/04 00:20:55;;;;;;;9.70;2.70;;;;;;;13.08;83.97;99187.70;109519;1253;70112;-66
2023/07/04 00:23:46;;;;;;;9.20;2.50;;;;;;;13.08;84.02;99190.55;109548;1253;59169;-63
2023/07/04 00:26:35;;;;;;;9.10;2.50;;;;;;;13.09;83.80;99193.61;109523;1253;60336;-64
2023/07/04 00:29:22;;;;;;;9.30;2.70;;;;;;;13.09;83.79;99192.30;109438;1253;70994;-61
2023/07/04 00:32:09;;;;;;;9.90;2.50;;;;;;;13.10;83.66;99192.15;109372;1253;67850;-61
2023/07/04 00:34:55;;;;;;;10.60;2.90;;;;;;;13.10;83.51;99194.73;109358;1253;71550;-63
2023/07/04 00:37:43;;;;;;;8.20;2.80;;;;;;;13.10;83.45;99194.21;109406;1254;58527;-62
2023/07/04 00:40:30;;;;;;;10.60;3.30;;;;;;;13.10;83.28;99197.39;109319;1254;60327;-63
2023/07/04 00:43:17;;;;;;;10.60;2.60;;;;;;;13.10;83.38;99203.30;109483;1254;72210;-62
2023/07/04 00:46:03;;;;;;;10.30;2.90;;;;;;;13.08;83.33;99205.63;109505;1254;67628;-62
2023/07/04 00:48:50;;;;;;;9.00;2.90;;;;;;;13.08;83.58;99210.97;109400;1254;71410;-63
2023/07/04 00:51:36;;;;;;;10.00;2.70;;;;;;;13.11;83.24;99209.65;109456;1254;60454;-63
2023/07/04 00:54:29;;;;;;;12.00;2.70;;;;;;;13.12;83.22;99212.53;109505;1254;60094;-62
2023/07/04 00:57:15;;;;;;;10.90;2.90;;;;;;;13.15;83.02;99213.91;109404;1254;70835;-62
2023/07/04 01:00:16;;;;;;;11.30;3.20;;;;;;;13.15;83.08;99212.64;109495;1254;67693;-62
2023/07/04 01:03:18;;;;;;;7.80;2.80;;;;;;;13.17;82.76;99217.07;109374;1254;72633;-63
2023/07/04 01:06:38;;;;;;;11.50;2.80;;;;;;;13.19;82.77;99216.69;109448;1254;58076;-61
2023/07/04 01:09:27;;;;;;;10.50;2.70;;;;;;;13.20;82.47;99219.73;109486;1254;58682;-62
2023/07/04 01:12:13;;;;;;;8.40;2.50;;;;;;;13.23;82.24;99215.66;109422;1254;70955;-63
2023/07/04 01:15:01;;;;;;;12.50;3.00;;;;;;;13.24;82.10;99215.02;109417;1254;66387;-62
2023/07/04 01:17:53;;;;;;;8.60;3.00;;;;;;;13.27;81.69;99213.73;109442;1254;71652;-63
2023/07/04 01:20:40;;;;;;;8.80;2.70;;;;;;;13.28;81.81;99213.17;109413;1254;58065;-63
2023/07/04 01:24:03;;;;;;;8.10;2.40;;;;;;;13.32;81.45;99208.98;109518;1253;60063;-61
2023/07/04 01:26:50;;;;;;;8.00;2.70;;;;;;;13.35;81.26;99208.50;109334;1254;72011;-63
2023/07/04 01:29:37;;;;;;;8.70;2.50;;;;;;;13.36;81.32;99211.41;109293;1254;66381;-64
2023/07/04 01:32:24;;;;;;;9.40;2.90;;;;;;;13.36;80.94;99209.11;109381;1254;72526;-61
2023/07/04 01:35:13;;;;;;;10.80;2.80;;;;;;;13.36;80.99;99208.04;109440;1253;60423;-63
2023/07/04 01:38:00;;;;;;;10.30;3.00;;;;;;;13.35;80.88;99207.75;109431;1253;60750;-61
2023/07/04 01:40:46;;;;;;;9.20;2.70;;;;;;;13.36;80.62;99211.45;109573;1253;72956;-63
2023/07/04 01:43:34;;;;;;;10.00;2.40;;;;;;;13.35;80.82;99207.36;109362;1253;66755;-65
2023/07/04 01:46:20;;;;;;;9.70;2.90;;;;;;;13.34;80.59;99204.95;109366;1253;71092;-64
2023/07/04 01:49:07;;;;;;;10.20;2.60;;;;;;;13.35;80.72;99210.96;109492;1254;57991;-62
2023/07/04 01:51:53;;;;;;;12.30;3.00;;;;;;;13.34;80.57;99209.27;109475;1253;60293;-60
2023/07/04 01:54:40;;;;;;;8.50;2.70;;;;;;;13.35;80.49;99203.69;109477;1253;73232;-61
2023/07/04 01:57:27;;;;;;;9.70;2.80;;;;;;;13.35;80.69;99205.80;109351;1253;66536;-63
2023/07/04 02:00:14;;;;;;;9.80;2.80;;;;;;;13.33;80.58;99206.11;109470;1253;73527;-62
2023/07/04 02:03:21;;;;;;;7.20;2.70;;;;;;;13.32;80.54;99204.14;109523;1253;58440;-61
2023/07/04 02:06:07;;;;;;;8.20;2.60;;;;;;;13.31;80.52;99195.11;109536;1253;58834;-63
2023/07/04 02:08:56;;;;;;;9.30;2.50;;;;;;;13.33;80.17;99196.95;109305;1253;73447;-62
2023/07/04 02:11:42;;;;;;;8.40;2.20;;;;;;;13.35;79.98;99189.61;109492;1253;68268;-63
2023/07/04 02:14:29;;;;;;;9.00;2.50;;;;;;;13.36;79.39;99194.32;109434;1253;72529;-64
2023/07/04 02:17:15;;;;;;;8.70;2.80;;;;;;;13.36;79.40;99197.34;109473;1253;56909;-62
2023/07/04 02:20:03;;;;;;;9.00;2.50;;;;;;;13.36;79.06;99197.84;109487;1253;58722;-63
2023/07/04 02:22:50;;;;;;;8.70;2.70;;;;;;;13.37;79.00;99197.95;109500;1256;70965;-62
2023/07/04 02:25:43;;;;;;;9.20;2.50;;;;;;;13.38;78.81;99196.46;109441;1253;65411;-61
2023/07/04 02:28:29;;;;;;;9.70;3.10;;;;;;;13.37;78.73;99195.74;109454;1253;70710;-62
2023/07/04 02:31:15;;;;;;;9.20;2.80;;;;;;;13.39;78.65;99192.95;109502;1253;57989;-62
2023/07/04 02:34:02;;;;;;;9.60;2.90;;;;;;;13.41;78.41;99195.77;109466;1253;59078;-61
2023/07/04 02:36:50;;;;;;;9.50;2.70;;;;;;;13.43;78.21;99191.10;109279;1254;73221;-63
2023/07/04 02:39:37;;;;;;;12.00;3.40;;;;;;;13.45;78.23;99187.27;109470;1254;67018;-65
2023/07/04 02:42:25;;;;;;;9.40;2.90;;;;;;;13.50;77.83;99188.40;109316;1254;72780;-61
2023/07/04 02:45:12;;;;;;;9.40;2.60;;;;;;;13.52;77.57;99189.80;109324;1254;57799;-64
2023/07/04 02:47:58;;;;;;;10.40;2.70;;;;;;;13.54;77.37;99195.47;109345;1256;61104;-66
2023/07/04 02:50:45;;;;;;;9.90;2.60;;;;;;;13.56;77.13;99193.98;109441;1257;71424;-62
2023/07/04 02:53:31;;;;;;;9.50;3.00;;;;;;;13.59;76.95;99193.69;109341;1254;66831;-63
2023/07/04 02:56:17;;;;;;;12.80;2.70;;;;;;;13.62;76.80;99189.42;109446;1256;72498;-62
2023/07/04 02:59:04;;;;;;;10.40;2.80;;;;;;;13.63;76.68;99182.77;109436;1254;58704;-62
2023/07/04 03:01:52;;;;;;;9.60;2.90;;;;;;;13.65;76.60;99182.17;109506;1254;61091;-61
2023/07/04 03:04:39;;;;;;;8.60;2.60;;;;;;;13.65;76.49;99183.31;109380;1255;72320;-62
2023/07/04 03:07:25;;;;;;;9.20;2.70;;;;;;;13.62;76.40;99183.38;109507;1254;67810;-62
2023/07/04 03:10:12;;;;;;;9.20;2.80;;;;;;;13.60;76.26;99180.70;109162;1254;72626;-62
2023/07/04 03:12:58;;;;;;;9.00;2.80;;;;;;;13.59;76.26;99173.91;109326;1254;59259;-61
2023/07/04 03:15:46;;;;;;;8.60;3.00;;;;;;;13.58;76.30;99178.98;109442;1254;58952;-61
2023/07/04 03:18:33;;;;;;;9.90;3.00;;;;;;;13.57;76.28;99175.17;109525;1254;71990;-62
2023/07/04 03:21:21;;;;;;;11.00;3.00;;;;;;;13.56;76.37;99174.76;109207;1256;68668;-61
2023/07/04 03:24:07;;;;;;;8.50;2.90;;;;;;;13.56;76.24;99173.46;109372;1254;72537;-63
2023/07/04 03:26:54;;;;;;;11.30;3.20;;;;;;;13.57;76.29;99168.73;109275;1255;57973;-63
2023/07/04 03:29:41;;;;;;;8.60;2.70;;;;;;;13.59;76.05;99165.75;109431;1254;59210;-64
2023/07/04 03:32:28;;;;;;;9.10;2.90;;;;;;;13.60;76.15;99164.89;109347;1254;70899;-63
2023/07/04 03:35:15;;;;;;;13.60;3.40;;;;;;;13.63;75.86;99158.55;109412;1252;66736;-62
2023/07/04 03:38:02;;;;;;;11.20;3.30;;;;;;;13.64;75.85;99156.27;109317;1253;72722;-63
2023/07/04 03:40:50;;;;;;;9.00;2.80;;;;;;;13.69;75.74;99154.23;109459;1253;60911;-63
2023/07/04 03:43:38;;;;;;;12.80;3.10;;;;;;;13.75;75.39;99150.34;109409;1253;58911;-62
2023/07/04 03:46:27;;;;;;;9.80;3.00;;;;;;;13.80;75.29;99144.44;109309;1253;73006;-61
2023/07/04 03:49:14;;;;;;;13.80;3.70;;;;;;;13.86;75.13;99138.70;109521;1253;66581;-64
2023/07/04 03:52:00;;;;;;;10.00;3.00;;;;;;;13.92;74.80;99135.37;109239;1253;72410;-64
2023/07/04 03:54:47;;;;;;;11.00;3.70;;;;;;;13.98;74.50;99129.70;109350;1253;56907;-64
2023/07/04 03:57:33;;;;;;;13.30;3.60;;;;;;;14.02;74.41;99131.29;109315;1253;58798;-67
2023/07/04 04:00:20;;;;;;;9.10;3.00;;;;;;;14.08;74.07;99140.45;109174;1253;72306;-66
2023/07/04 04:03:18;;;;;;;10.60;3.30;;;;;;;14.11;73.97;99144.04;109369;1254;67858;-63
2023/07/04 04:06:07;;;;;;;11.70;3.80;;;;;;;14.14;73.85;99147.09;109352;1253;72762;-62
2023/07/04 04:08:53;;;;;;;11.40;3.60;;;;;;;14.20;73.48;99144.66;109503;1253;57831;-65
2023/07/04 04:11:40;;;;;;;10.50;3.60;;;;;;;14.27;73.37;99138.71;109514;1253;60299;-61
2023/07/04 04:14:29;;;;;;;12.10;3.50;;;;;;;14.33;73.01;99137.98;109420;1254;71869;-61
2023/07/04 04:17:16;;;;;;;10.70;3.10;;;;;;;14.37;72.79;99135.17;109634;1252;68633;-64
2023/07/04 04:20:06;;;;;;;10.20;3.00;;;;;;;14.45;72.38;99130.80;109582;1253;73162;-62
2023/07/04 04:22:52;;;;;;;10.30;3.10;;;;;;;14.54;71.87;99129.09;109502;1253;57375;-63
2023/07/04 04:25:38;;;;;;;10.30;3.50;;;;;;;14.64;71.46;99124.08;109503;1253;58874;-64
2023/07/04 04:28:26;;;;;;;10.50;3.40;;;;;;;14.69;70.72;99115.89;109422;1253;69813;-62
2023/07/04 04:31:15;;;;;;;10.30;3.40;;;;;;;14.80;70.32;99114.50;109436;1253;67735;-59
2023/07/04 04:34:02;;;;;;;10.00;3.00;;;;;;;14.92;70.10;99122.96;109508;1252;73481;-63
2023/07/04 04:36:48;;;;;;;10.50;2.60;;;;;;;15.05;69.94;99114.95;109392;1256;58008;-62
2023/07/04 04:39:36;;;;;;;12.80;3.40;;;;;;;15.16;69.24;99116.39;109410;1254;58939;-62
2023/07/04 04:42:23;;;;;;;8.80;2.90;;;;;;;15.22;68.49;99121.44;109163;1254;72984;-62
2023/07/04 04:45:12;;;;;;;12.10;3.10;;;;;;;15.25;68.41;99122.83;109393;1254;69103;-62
2023/07/04 04:48:01;;;;;;;11.50;3.20;;;;;;;15.25;68.32;99124.38;109399;1254;73632;-63
2023/07/04 04:50:48;;;;;;;9.30;3.20;;;;;;;15.24;68.28;99125.08;109317;1255;57840;-63
2023/07/04 04:53:36;;;;;;;10.60;3.50;;;;;;;15.21;68.12;99120.47;109320;1254;61072;-63
2023/07/04 04:56:24;;;;;;;9.80;3.30;;;;;;;15.17;68.20;99117.87;109277;1254;71939;-62
2023/07/04 04:59:12;;;;;;;11.30;3.50;;;;;;;15.16;68.17;99118.55;109285;1254;67782;-65
2023/07/04 05:01:59;;;;;;;11.10;3.70;;;;;;;15.13;68.15;99113.46;109290;1254;72817;-64
2023/07/04 05:04:45;;;;;;;8.80;2.80;;;;;;;15.15;68.08;99111.69;109303;1254;57318;-62
2023/07/04 05:07:33;;;;;;;11.30;3.20;;;;;;;15.12;67.93;99108.39;109410;1256;61387;-62
2023/07/04 05:10:20;;;;;;;10.10;2.90;;;;;;;15.14;67.97;99109.95;109417;1255;73149;-65
2023/07/04 05:13:06;;;;;;;11.50;3.00;;;;;;;15.16;67.72;99108.86;109426;1254;67984;-62
2023/07/04 05:16:05;;;;;;;12.70;3.70;;;;;;;15.23;67.79;99108.50;109276;1254;72539;-63
2023/07/04 05:18:51;;;;;;;11.70;4.00;;;;;;;15.31;67.41;99105.77;109375;1254;58335;-64
2023/07/04 05:21:38;;;;;;;15.10;4.50;;;;;;;15.45;67.14;99100.04;109370;1256;58749;-64
2023/07/04 05:24:24;;;;;;;11.50;3.40;;;;;;;15.60;66.34;99106.81;109376;1254;72255;-66
2023/07/04 05:27:11;;;;;;;10.00;3.60;;;;;;;15.67;66.08;99109.39;109209;1254;67988;-64
2023/07/04 05:29:57;;;;;;;10.70;3.40;;;;;;;15.71;65.71;99107.06;109385;1254;72664;-62
2023/07/04 05:32:43;;;;;;;11.50;3.50;;;;;;;15.74;65.58;99101.98;109265;1254;57710;-63
2023/07/04 05:35:30;;;;;;;12.90;3.70;;;;;;;15.80;65.12;99091.13;109462;1253;60082;-65
2023/07/04 05:38:16;;;;;;;11.90;3.90;;;;;;;15.82;64.26;99090.20;109435;1253;72897;-65
2023/07/04 05:41:08;;;;;;;11.20;3.50;;;;;;;15.89;64.22;99085.98;109494;1253;67917;-62
2023/07/04 05:43:59;;;;;;;12.10;3.80;;;;;;;16.01;63.90;99090.73;109385;1253;72561;-62
2023/07/04 05:46:46;;;;;;;16.20;4.90;;;;;;;16.11;63.16;99093.69;109469;1253;57380;-65
2023/07/04 05:49:32;;;;;;;12.20;3.70;;;;;;;16.19;62.74;99093.96;109426;1253;58667;-61
2023/07/04 05:52:19;;;;;;;11.30;4.00;;;;;;;16.26;62.19;99094.73;109450;1253;71643;-61
2023/07/04 05:55:06;;;;;;;15.70;4.20;;;;;;;16.42;61.91;99096.48;109371;1254;67957;-61
2023/07/04 05:57:52;;;;;;;13.40;3.60;;;;;;;16.60;60.80;99093.33;109479;1253;73566;-63
2023/07/04 06:00:38;;;;;;;11.10;4.10;;;;;;;16.75;59.83;99097.79;109523;1253;57987;-64
2023/07/04 06:03:25;;;;;;;11.90;4.00;;;;;;;16.94;59.24;99089.63;109434;1253;60204;-64
2023/07/04 06:06:20;;;;;;;9.90;3.50;;;;;;;17.16;58.36;99089.69;109384;1253;73090;-61
2023/07/04 06:09:17;;;;;;;16.30;4.70;;;;;;;17.28;57.61;99088.14;109426;1253;66510;-66
2023/07/04 06:12:07;;;;;;;13.10;3.80;;;;;;;17.35;57.18;99087.41;109302;1253;74026;-63
2023/07/04 06:14:53;;;;;;;13.30;4.30;;;;;;;17.41;56.59;99093.96;109388;1253;57712;-63
2023/07/04 06:17:39;;;;;;;11.10;3.60;;;;;;;17.39;56.33;99093.21;109443;1254;61366;-64
2023/07/04 06:20:26;;;;;;;11.70;3.70;;;;;;;17.34;56.45;99082.17;109278;1253;73208;-65
2023/07/04 06:23:13;;;;;;;12.00;3.90;;;;;;;17.40;56.35;99080.77;109521;1253;65884;-63
2023/07/04 06:26:00;;;;;;;10.50;3.60;;;;;;;17.61;55.62;99080.13;109450;1253;73535;-66
2023/07/04 06:28:49;;;;;;;11.10;3.50;;;;;;;17.87;54.65;99075.66;109389;1253;57372;-63
2023/07/04 06:31:36;;;;;;;9.00;3.00;;;;;;;18.10;53.86;99069.30;109396;1253;58961;-63
2023/07/04 06:34:23;;;;;;;10.80;3.70;;;;;;;18.37;52.81;99066.66;109475;1254;71545;-63
2023/07/04 06:37:09;;;;;;;13.40;4.20;;;;;;;18.59;51.89;99062.11;109332;1254;68946;-63
2023/07/04 06:39:56;;;;;;;14.20;3.70;;;;;;;18.82;51.65;99054.15;109276;1254;72738;-64
2023/07/04 06:42:42;;;;;;;12.10;3.50;;;;;;;19.03;50.84;99054.35;109454;1257;57838;-62
2023/07/04 06:45:31;;;;;;;10.40;3.40;;;;;;;19.13;50.67;99053.15;109383;1254;59637;-63
2023/07/04 06:48:21;;;;;;;11.80;3.20;;;;;;;19.27;49.97;99048.53;109417;1255;72935;-64
2023/07/04 06:51:15;;;;;;;10.30;3.50;;;;;;;19.30;49.69;99050.54;109455;1256;67759;-64
2023/07/04 06:54:02;;;;;;;11.20;3.50;;;;;;;19.35;49.76;99050.18;109412;1254;73635;-63
2023/07/04 06:56:48;;;;;;;12.10;3.20;;;;;;;19.36;49.47;99048.91;109354;1254;58840;-61
2023/07/04 06:59:35;;;;;;;11.00;3.40;;;;;;;19.54;49.43;99044.28;109336;1255;61116;-64
2023/07/04 07:02:21;;;;;;;11.80;3.70;;;;;;;19.68;48.72;99051.83;109424;1254;74140;-65
2023/07/04 07:05:08;;;;;;;10.40;3.20;;;;;;;20.19;47.64;99053.58;109345;1254;67816;-63
2023/07/04 07:07:55;;;;;;;11.10;3.60;;;;;;;21.22;45.42;99044.89;109376;1255;72540;-64
2023/07/04 07:10:58;;;;;;;12.50;3.90;;;;;;;22.07;43.10;99037.45;109272;1254;58993;-65
2023/07/04 07:13:48;;;;;;;13.10;3.30;;;;;;;22.23;42.07;99046.04;109430;1254;60235;-66
2023/07/04 07:16:35;;;;;;;14.20;3.80;;;;;;;22.67;41.80;99039.93;109424;1254;71624;-67
2023/07/04 07:19:23;;;;;;;11.80;3.40;;;;;;;23.43;40.55;99046.52;109435;1255;68883;-67
2023/07/04 07:22:10;;;;;;;9.30;3.40;;;;;;;24.00;38.66;99038.86;109365;1254;72546;-66
2023/07/04 07:24:56;;;;;;;9.80;3.50;;;;;;;24.53;37.38;99037.73;109432;1254;57733;-66
2023/07/04 07:27:43;;;;;;;12.30;4.10;;;;;;;25.26;36.79;99040.30;109396;1254;60132;-69
2023/07/04 07:30:29;;;;;;;11.90;3.80;;;;;;;25.95;34.99;99036.70;109296;1255;74552;-66
2023/07/04 07:33:16;;;;;;;9.90;3.50;;;;;;;26.59;34.31;99039.45;109402;1254;68230;-69
2023/07/04 07:36:20;;;;;;;11.20;3.60;;;;;;;27.44;33.48;99046.15;109286;1253;71416;-68
2023/07/04 07:39:11;;;;;;;11.20;3.90;;;;;;;27.28;33.11;99042.95;109492;1253;58967;-68
2023/07/04 07:41:59;;;;;;;13.40;3.50;;;;;;;27.24;32.11;99052.67;109425;1253;58730;-65
2023/07/04 07:44:45;;;;;;;14.70;3.60;;;;;;;26.70;32.36;99046.89;109307;1254;72375;-64
2023/07/04 07:47:32;;;;;;;11.40;4.20;;;;;;;26.44;33.10;99055.14;109441;1253;67694;-65
2023/07/04 07:50:19;;;;;;;12.00;3.80;;;;;;;26.94;32.67;99047.92;109481;1256;72582;-64
2023/07/04 07:53:06;;;;;;;9.90;3.40;;;;;;;27.00;31.89;99043.56;109424;1253;57882;-63
2023/07/04 07:55:52;;;;;;;13.20;4.00;;;;;;;26.95;31.65;99053.61;109414;1254;61043;-71
2023/07/04 07:58:39;;;;;;;10.80;3.70;;;;;;;26.97;31.45;99042.30;109413;1254;73242;-72
2023/07/04 08:01:29;;;;;;;14.70;3.50;;;;;;;28.01;30.63;99039.67;109403;1254;67672;-66
2023/07/04 08:04:15;;;;;;;11.20;3.80;;;;;;;28.47;30.00;99039.76;109389;1254;71972;-70
2023/07/04 08:07:03;;;;;;;12.00;3.60;;;;;;;28.55;29.37;99036.58;109359;1253;57957;-70
2023/07/04 08:09:49;;;;;;;13.00;4.00;;;;;;;28.97;29.35;99039.60;109481;1253;58846;-71
2023/07/04 08:12:36;;;;;;;10.30;3.60;;;;;;;29.42;28.50;99040.64;109171;1254;72682;-70
2023/07/04 08:15:22;;;;;;;13.40;4.00;;;;;;;29.71;27.69;99044.69;109375;1254;66749;-68
2023/07/04 08:18:10;;;;;;;13.00;4.30;;;;;;;29.90;27.20;99052.20;109210;1254;72731;-70
2023/07/04 08:21:03;;;;;;;13.60;3.70;;;;;;;29.86;27.10;99052.91;109171;1252;57370;-73
2023/07/04 08:23:50;;;;;;;11.70;4.10;;;;;;;29.86;27.22;99060.09;109522;1254;61276;-68
2023/07/04 08:26:40;;;;;;;11.20;3.70;;;;;;;29.64;27.49;99060.84;109387;1254;72956;-72
2023/07/04 08:29:27;;;;;;;11.90;3.50;;;;;;;29.41;27.94;99061.41;109347;1254;67898;-75
2023/07/04 08:32:15;;;;;;;12.00;3.90;;;;;;;28.92;28.38;99057.71;109563;1254;72426;-71
2023/07/04 08:35:03;;;;;;;14.90;4.50;;;;;;;28.53;28.98;99068.52;109351;1254;57741;-70
2023/07/04 08:37:51;;;;;;;11.70;3.90;;;;;;;27.74;30.03;99076.56;109313;1254;60185;-71
2023/07/04 08:40:42;;;;;;;14.30;4.20;;;;;;;27.00;31.06;99072.61;109389;1254;73810;-73
2023/07/04 08:43:37;;;;;;;10.30;3.80;;;;;;;27.18;30.49;99068.87;109413;1259;66719;-74
2023/07/04 08:46:23;;;;;;;9.90;3.50;;;;;;;27.67;29.94;99079.54;109302;1254;72402;-72
2023/07/04 08:49:40;;;;;;;13.50;3.60;;;;;;;28.15;29.14;99070.40;109337;1254;58049;-71
2023/07/04 08:52:41;;;;;;;12.90;3.50;;;;;;;28.76;28.39;99069.36;109310;1254;59502;-72
2023/07/04 08:55:31;;;;;;;14.40;3.60;;;;;;;29.41;27.66;99077.36;109263;1254;73102;-72
2023/07/04 08:58:21;;;;;;;11.80;3.40;;;;;;;29.85;27.59;99062.94;109190;1254;68891;-72
2023/07/04 09:01:21;;;;;;;10.20;3.50;;;;;;;28.87;28.38;99062.91;109269;1254;71100;-71
2023/07/04 09:04:18;;;;;;;9.80;3.50;;;;;;;28.82;28.64;99078.05;109281;1254;58764;-69
2023/07/04 09:07:24;;;;;;;10.70;2.90;;;;;;;28.51;29.21;99086.23;109200;1254;60537;-72
2023/07/04 09:10:42;;;;;;;11.70;3.30;;;;;;;27.42;30.86;99097.65;109273;1254;71707;-67
2023/07/04 09:13:46;;;;;;;9.20;3.20;;;;;;;26.18;32.70;99105.52;109239;1254;67129;-72
2023/07/04 09:16:48;;;;;;;10.00;3.60;;;;;;;25.13;34.93;99121.42;109363;1254;73757;-68
2023/07/04 09:19:43;;;;;;;11.50;3.70;;;;;;;24.23;36.54;99132.98;109266;1254;57850;-63
2023/07/04 09:22:29;;;;;;;12.10;3.20;;;;;;;23.71;37.93;99138.75;109200;1254;60220;-67
2023/07/04 09:25:16;;;;;;;12.00;3.90;;;;;;;23.28;38.52;99144.06;109464;1253;72911;-66
2023/07/04 09:28:02;;;;;;;12.50;3.60;;;;;;;22.72;39.70;99149.80;109425;1254;67796;-68
2023/07/04 09:30:49;;;;;;;11.10;3.40;;;;;;;22.51;40.50;99155.69;109486;1254;71261;-66
2023/07/04 09:33:38;;;;;;;10.80;3.70;;;;;;;22.68;40.22;99150.35;109483;1253;57815;-66
2023/07/04 09:36:38;;;;;;;13.90;3.50;;;;;;;23.23;39.44;99150.27;109448;1254;58720;-68
2023/07/04 09:39:54;;;;;;;12.10;3.80;;;;;;;23.74;38.39;99153.33;109315;1254;72879;-66
2023/07/04 09:42:43;;;;;;;10.10;3.40;;;;;;;24.43;36.73;99145.19;109444;1254;67314;-64
2023/07/04 09:45:34;;;;;;;11.60;3.60;;;;;;;24.13;37.34;99156.95;109307;1254;71211;-69
2023/07/04 09:48:25;;;;;;;9.50;3.10;;;;;;;23.90;37.64;99165.52;109202;1254;57303;-67
2023/07/04 09:51:31;;;;;;;10.40;3.10;;;;;;;23.47;38.09;99173.95;109336;1254;60280;-67
2023/07/04 09:54:18;;;;;;;9.10;3.20;;;;;;;22.63;39.11;99172.14;109279;1254;72079;-69
2023/07/04 09:57:28;;;;;;;8.60;3.30;;;;;;;22.00;40.49;99178.20;109348;1254;67898;-67
2023/07/04 10:00:19;;;;;;;11.00;3.30;;;;;;;21.46;42.03;99190.18;109414;1253;74020;-71
2023/07/04 10:03:07;;;;;;;10.80;4.00;;;;;;;21.12;42.91;99194.58;109453;1254;58065;-67
2023/07/04 10:05:53;;;;;;;9.70;3.50;;;;;;;20.88;43.80;99204.62;109445;1253;58751;-70
2023/07/04 10:08:57;;;;;;;10.60;4.20;;;;;;;20.78;43.86;99210.18;109273;1253;72842;-69
2023/07/04 10:11:43;;;;;;;12.00;3.30;;;;;;;20.68;43.96;99209.46;109483;1254;67786;-65
2023/07/04 10:14:35;;;;;;;26.90;5.20;;;;;;;20.68;43.99;99214.31;109367;1253;73428;-66
2023/07/04 10:17:39;;;;;;;13.50;3.40;;;;;;;21.52;42.29;99208.77;109463;1254;57853;-65
2023/07/04 10:20:35;;;;;;;16.50;3.20;;;;;;;22.20;40.98;99210.41;109420;1254;61205;-68
2023/07/04 10:23:23;;;;;;;15.70;3.20;;;;;;;23.53;38.81;99210.05;109368;1253;71533;-71
2023/07/04 10:26:12;;;;;;;12.80;3.00;;;;;;;24.59;36.85;99211.62;109194;1256;67587;-68
2023/07/04 10:28:58;;;;;;;26.40;3.90;;;;;;;24.49;35.57;99212.55;109105;1256;71863;-69
2023/07/04 10:31:46;;;;;;;9.00;2.60;;;;;;;24.15;36.13;99224.95;109088;1262;57973;-72
2023/07/04 10:34:35;;;;;;;8.20;2.20;;;;;;;23.72;36.59;99221.26;109129;1256;58748;-68
2023/07/04 10:37:27;;;;;;;7.70;2.20;;;;;;;23.44;36.95;99224.63;109090;1256;72258;-69
2023/07/04 10:40:16;;;;;;;8.50;2.20;;;;;;;23.28;37.75;99226.79;108978;1257;68055;-70
2023/07/04 10:43:13;;;;;;;7.10;2.10;;;;;;;23.23;38.38;99226.91;109087;1256;72558;-69
2023/07/04 10:46:04;;;;;;;7.90;2.80;;;;;;;23.16;39.31;99228.70;109045;1257;58969;-68
2023/07/04 10:48:59;;;;;;;20.70;4.00;;;;;;;23.64;38.56;99233.17;109163;1256;59090;-67
2023/07/04 10:51:50;;;;;;;10.80;2.60;;;;;;;23.98;38.19;99238.96;109037;1257;73051;-69
2023/07/04 10:54:37;;;;;;;8.50;2.20;;;;;;;24.43;37.56;99235.54;109058;1257;67334;-66
2023/07/04 10:57:43;;;;;;;8.20;2.10;;;;;;;24.46;36.22;99242.27;109203;1254;71219;-66
2023/07/04 11:01:07;;;;;;;7.70;2.20;;;;;;;24.43;35.73;99243.88;109299;1254;58000;-67
2023/07/04 11:04:04;;;;;;;7.50;2.30;;;;;;;24.71;35.35;99243.74;109385;1254;59086;-69
2023/07/04 11:07:03;;;;;;;8.40;2.60;;;;;;;26.24;32.65;99237.15;109258;1254;72582;-67
2023/07/04 11:10:01;;;;;;;7.60;2.10;;;;;;;27.26;31.64;99242.18;109358;1254;68854;-71
2023/07/04 11:12:52;;;;;;;6.80;1.90;;;;;;;27.04;31.28;99245.86;109380;1254;72692;-70
2023/07/04 11:15:38;;;;;;;7.50;1.70;;;;;;;26.45;31.35;99253.09;109281;1254;57446;-66
2023/07/04 11:18:30;;;;;;;7.10;1.70;;;;;;;26.52;31.54;99249.11;109341;1254;58834;-66
2023/07/04 11:21:20;;;;;;;6.90;1.70;;;;;;;26.76;30.91;99261.20;109314;1254;72890;-67
2023/07/04 11:24:17;;;;;;;7.00;1.70;;;;;;;26.63;30.47;99260.50;109353;1254;69036;-64
2023/07/04 11:27:13;;;;;;;9.40;1.80;;;;;;;26.84;30.45;99252.20;109375;1254;71445;-65
2023/07/04 11:30:05;;;;;;;10.20;1.80;;;;;;;27.05;30.03;99251.77;109183;1254;57430;-65
2023/07/04 11:32:57;;;;;;;6.50;1.50;;;;;;;27.07;29.63;99254.63;109393;1254;60085;-66
2023/07/04 11:35:44;;;;;;;6.80;1.40;;;;;;;26.59;30.12;99257.94;109375;1254;73856;-67
2023/07/04 11:38:31;;;;;;;7.90;1.50;;;;;;;26.54;30.15;99256.50;109418;1254;69105;-67
2023/07/04 11:41:50;;;;;;;6.70;1.40;;;;;;;26.09;30.87;99258.38;109394;1253;71166;-65
2023/07/04 11:44:58;;;;;;;7.80;1.60;;;;;;;25.75;31.22;99255.43;108906;1260;57791;-69
2023/07/04 11:48:10;;;;;;;5.90;1.40;;;;;;;25.26;31.97;99264.91;108932;1260;60324;-67
2023/07/04 11:51:12;;;;;;;5.60;1.40;;;;;;;24.78;33.13;99279.52;108888;1259;74039;-69
2023/07/04 11:54:01;;;;;;;8.50;1.80;;;;;;;24.30;33.49;99283.14;108884;1260;66614;-66
2023/07/04 11:56:48;;;;;;;7.00;1.80;;;;;;;23.90;34.31;99284.31;108885;1260;71661;-66
2023/07/04 11:59:43;;;;;;;6.70;1.40;;;;;;;23.77;34.61;99286.97;108726;1260;57668;-65
2023/07/04 12:02:30;;;;;;;6.70;1.50;;;;;;;23.85;34.43;99285.17;108879;1260;59753;-68
2023/07/04 12:05:33;;;;;;;6.60;1.50;;;;;;;23.98;34.66;99288.42;108780;1260;73277;-65
2023/07/04 12:08:52;;;;;;;7.10;1.70;;;;;;;24.10;34.50;99283.26;108835;1260;66419;-65
2023/07/04 12:11:46;;;;;;;7.00;1.80;;;;;;;24.28;34.34;99287.61;108404;1267;70695;-66
2023/07/04 12:14:37;;;;;;;7.30;1.60;;;;;;;24.45;33.83;99287.89;108482;1267;57498;-68
2023/07/04 12:17:24;;;;;;;5.90;1.70;;;;;;;24.47;32.80;99286.17;108512;1267;60294;-67
2023/07/04 12:20:16;;;;;;;6.90;1.60;;;;;;;24.41;32.97;99290.38;108753;1259;73011;-67
2023/07/04 12:23:09;;;;;;;7.60;1.40;;;;;;;24.08;33.00;99291.39;108795;1259;67727;-66
2023/07/04 12:26:01;;;;;;;7.20;1.30;;;;;;;23.91;33.68;99290.45;108835;1259;73230;-66
2023/07/04 12:28:48;;;;;;;5.50;1.10;;;;;;;23.89;33.12;99292.60;108874;1259;59050;-66
2023/07/04 12:31:34;;;;;;;5.40;1.40;;;;;;;23.66;33.33;99291.47;108964;1259;58774;-67
2023/07/04 12:34:33;;;;;;;8.20;1.30;;;;;;;23.47;33.63;99297.70;108954;1259;72798;-66
2023/07/04 12:37:46;;;;;;;5.40;1.30;;;;;;;23.41;33.58;99296.09;108790;1259;69134;-67
2023/07/04 12:40:34;;;;;;;10.30;1.50;;;;;;;23.51;33.06;99293.48;108854;1259;71274;-66
2023/07/04 12:43:33;;;;;;;7.00;1.40;;;;;;;23.64;33.42;99287.77;108861;1261;57831;-69
2023/07/04 12:46:23;;;;;;;5.30;1.40;;;;;;;23.77;33.17;99288.44;108901;1261;60195;-67
2023/07/04 12:49:13;;;;;;;4.60;1.10;;;;;;;23.98;33.80;99295.98;109086;1253;71977;-69
2023/07/04 12:52:03;;;;;;;7.10;1.10;;;;;;;24.09;32.19;99291.69;109373;1254;66603;-67
2023/07/04 12:54:50;;;;;;;5.80;1.30;;;;;;;24.20;32.39;99289.08;109241;1254;72545;-70
2023/07/04 12:57:38;;;;;;;8.40;1.30;;;;;;;24.30;31.80;99293.27;109372;1254;57841;-69
2023/07/04 13:00:29;;;;;;;6.00;1.60;;;;;;;24.27;32.24;99299.61;109418;1254;60409;-69
2023/07/04 13:03:17;;;;;;;5.30;1.20;;;;;;;24.15;32.41;99300.34;109356;1254;73246;-67
2023/07/04 13:06:08;;;;;;;5.20;1.30;;;;;;;24.10;32.74;99301.40;109242;1254;67661;-70
2023/07/04 13:08:56;;;;;;;6.50;2.50;;;;;;;24.15;32.90;99301.48;109370;1254;71476;-66